Time;durP1;ratioP1;P1;durP2;ratioP2;P2;SDS_P1;SDS_P2;PMS_P1;PMS_P2;Temp;Humidity;BMP_temperature;BMP_pressure;BME280_temperature;BME280_humidity;BME280_pressure;Samples;Min_cycle;Max_cycle;Signal;HPM_P1;HPM_P2
2022/11/25 00:00:35;;;;;;;4.57;3.15;;;;;;;-1.50;100.00;92848.91;2123623;27;20023;-74
2022/11/25 00:01:37;;;;;;;6.57;3.55;;;;;;;-1.55;100.00;92851.81;2123330;27;20028;-75
2022/11/25 00:02:43;;;;;;;8.68;3.58;;;;;;;-1.51;100.00;92847.41;2122854;27;20480;-72
2022/11/25 00:03:45;;;;;;;5.22;3.72;;;;;;;-1.51;100.00;92852.63;2122645;27;20058;-72
2022/11/25 00:04:46;;;;;;;5.38;3.33;;;;;;;-1.45;100.00;92848.63;2123035;27;20082;-74
2022/11/25 00:05:47;;;;;;;6.25;3.35;;;;;;;-1.44;100.00;92852.78;2123551;27;20023;-73
2022/11/25 00:06:48;;;;;;;5.25;3.08;;;;;;;-1.50;100.00;92853.38;2123267;27;20050;-72
2022/11/25 00:07:48;;;;;;;8.18;3.38;;;;;;;-1.48;100.00;92856.44;2114120;28;20031;-72
2022/11/25 00:08:58;;;;;;;4.40;3.33;;;;;;;-1.45;100.00;92853.84;2105468;28;20016;-72
2022/11/25 00:09:59;;;;;;;7.22;3.58;;;;;;;-1.40;100.00;92858.09;2115293;27;20047;-73
2022/11/25 00:11:01;;;;;;;5.72;3.45;;;;;;;-1.38;100.00;92850.63;2122840;27;20411;-72
2022/11/25 00:12:02;;;;;;;4.40;3.60;;;;;;;-1.36;100.00;92853.66;2123461;27;20046;-72
2022/11/25 00:13:03;;;;;;;8.20;3.88;;;;;;;-1.49;100.00;92854.91;2131655;27;20029;-72
2022/11/25 00:14:05;;;;;;;7.00;3.10;;;;;;;-1.48;100.00;92856.44;2131465;27;20030;-71
2022/11/25 00:15:06;;;;;;;5.90;3.22;;;;;;;-1.50;100.00;92848.91;2123447;27;20141;-73
2022/11/25 00:16:09;;;;;;;4.75;3.40;;;;;;;-1.46;100.00;92854.22;2123230;27;20117;-72
2022/11/25 00:17:10;;;;;;;7.15;3.42;;;;;;;-1.39;100.00;92849.13;2127362;27;20049;-72
2022/11/25 00:18:11;;;;;;;4.10;3.17;;;;;;;-1.36;100.00;92848.41;2140237;27;20069;-74
2022/11/25 00:19:12;;;;;;;6.57;3.70;;;;;;;-1.44;100.00;92846.78;2140543;27;20361;-72
2022/11/25 00:20:13;;;;;;;6.57;2.92;;;;;;;-1.52;100.00;92846.63;2140569;27;20053;-72
2022/11/25 00:21:18;;;;;;;4.55;2.72;;;;;;;-1.54;100.00;92842.84;2140898;27;20408;-72
2022/11/25 00:22:19;;;;;;;5.93;2.90;;;;;;;-1.43;100.00;92843.81;2139295;27;20391;-72
2022/11/25 00:23:20;;;;;;;6.22;3.00;;;;;;;-1.45;100.00;92848.63;2122694;27;20019;-73
2022/11/25 00:24:21;;;;;;;3.97;3.20;;;;;;;-1.49;100.00;92857.53;2131901;27;20054;-72
2022/11/25 00:25:22;;;;;;;5.80;3.00;;;;;;;-1.43;100.00;92854.28;2132046;27;20018;-73
2022/11/25 00:26:24;;;;;;;5.55;2.95;;;;;;;-1.45;100.00;92850.50;2132137;27;20346;-73
2022/11/25 00:27:25;;;;;;;4.93;2.80;;;;;;;-1.40;100.00;92842.38;2131933;27;20022;-74
2022/11/25 00:28:26;;;;;;;6.90;3.55;;;;;;;-1.45;100.00;92845.25;2138243;27;20025;-72
2022/11/25 00:29:27;;;;;;;7.72;3.00;;;;;;;-1.44;100.00;92844.91;2140608;27;20245;-71
2022/11/25 00:30:28;;;;;;;4.30;2.65;;;;;;;-1.44;100.00;92847.53;2140340;27;20078;-72
2022/11/25 00:31:32;;;;;;;4.38;2.70;;;;;;;-1.41;100.00;92848.69;2140489;27;20585;-72
2022/11/25 00:32:33;;;;;;;5.03;3.75;;;;;;;-1.43;100.00;92848.28;2140523;27;20062;-72
2022/11/25 00:33:35;;;;;;;3.90;2.80;;;;;;;-1.37;100.00;92847.66;2124036;27;20068;-71
2022/11/25 00:34:36;;;;;;;5.90;2.88;;;;;;;-1.39;100.00;92849.88;2122727;27;20075;-71
2022/11/25 00:35:37;;;;;;;6.40;3.10;;;;;;;-1.33;100.00;92845.09;2131441;27;20071;-72
2022/11/25 00:36:38;;;;;;;7.10;3.20;;;;;;;-1.32;100.00;92839.53;2131588;27;20083;-72
2022/11/25 00:37:39;;;;;;;6.28;3.55;;;;;;;-1.34;100.00;92838.34;2131910;27;20019;-72
2022/11/25 00:38:40;;;;;;;5.93;3.10;;;;;;;-1.33;100.00;92842.47;2137155;27;20482;-72
2022/11/25 00:39:41;;;;;;;7.30;3.17;;;;;;;-1.32;100.00;92844.78;2130299;27;20018;-72
2022/11/25 00:40:42;;;;;;;5.20;3.08;;;;;;;-1.36;100.00;92846.56;2122693;27;20026;-72
2022/11/25 00:44:39;;;;;;;5.20;2.92;;;;;;;-1.28;100.00;92844.81;2101783;28;20127;-72
2022/11/25 00:45:41;;;;;;;6.07;3.33;;;;;;;-1.24;100.00;92850.88;2140504;27;20022;-75
2022/11/25 00:46:42;;;;;;;5.97;3.35;;;;;;;-1.37;100.00;92854.75;2130963;27;20074;-72
2022/11/25 00:47:43;;;;;;;6.30;3.05;;;;;;;-1.32;100.00;92838.75;2130920;27;20026;-73
2022/11/25 00:48:44;;;;;;;7.78;3.13;;;;;;;-1.28;100.00;92836.94;2127245;27;20476;-73
2022/11/25 00:49:47;;;;;;;5.70;3.30;;;;;;;-1.24;100.00;92840.38;2122560;27;20019;-75
2022/11/25 00:50:48;;;;;;;7.50;3.20;;;;;;;-1.20;100.00;92840.47;2122352;27;20389;-72
2022/11/25 00:51:49;;;;;;;5.35;3.00;;;;;;;-1.19;100.00;92842.72;2122636;27;20019;-74
2022/11/25 00:52:50;;;;;;;7.20;3.47;;;;;;;-1.12;100.00;92834.22;2131829;27;20052;-76
2022/11/25 00:53:51;;;;;;;5.15;3.30;;;;;;;-1.17;100.00;92839.78;2115196;27;20031;-75
2022/11/25 00:54:52;;;;;;;5.95;3.10;;;;;;;-1.14;100.00;92842.47;2122183;27;20422;-73
2022/11/25 00:56:12;;;;;;;6.25;3.17;;;;;;;-1.12;100.00;92849.97;2122444;27;20049;-75
2022/11/25 00:57:14;;;;;;;4.57;2.42;;;;;;;-0.88;100.00;92848.88;2125389;27;20404;-73
2022/11/25 00:58:14;;;;;;;4.80;2.63;;;;;;;-0.97;100.00;92861.44;2131793;27;20453;-72
2022/11/25 00:59:16;;;;;;;5.38;3.00;;;;;;;-0.92;100.00;92851.44;2131088;27;20088;-73
2022/11/25 01:00:17;;;;;;;9.65;2.95;;;;;;;-0.84;100.00;92855.69;2131641;27;20027;-74
2022/11/25 01:01:18;;;;;;;3.10;2.40;;;;;;;-0.85;100.00;92845.56;2130987;27;20079;-75
2022/11/25 01:02:19;;;;;;;6.10;2.58;;;;;;;-0.94;100.00;92858.16;2131361;27;20071;-73
2022/11/25 01:03:20;;;;;;;7.68;3.05;;;;;;;-0.99;100.00;92851.31;2131658;27;20018;-73
2022/11/25 01:04:22;;;;;;;4.53;2.67;;;;;;;-1.00;100.00;92847.19;2131063;27;20115;-73
2022/11/25 01:05:22;;;;;;;5.65;2.95;;;;;;;-0.93;100.00;92847.28;2131769;27;20034;-72
2022/11/25 01:06:24;;;;;;;5.78;2.95;;;;;;;-0.93;100.00;92849.91;2133106;27;20019;-73
2022/11/25 01:07:25;;;;;;;4.28;3.45;;;;;;;-0.94;100.00;92842.41;2123761;27;20015;-76
2022/11/25 01:08:28;;;;;;;8.02;3.42;;;;;;;-1.00;100.00;92839.31;2123758;27;20055;-71
2022/11/25 01:09:29;;;;;;;5.63;3.42;;;;;;;-1.09;100.00;92846.66;2133686;27;20404;-75
2022/11/25 01:10:30;;;;;;;6.47;2.92;;;;;;;-1.02;100.00;92852.00;2140565;27;20036;-75
2022/11/25 01:11:32;;;;;;;7.20;3.38;;;;;;;-0.96;100.00;92845.38;2131161;27;20033;-74
2022/11/25 01:12:33;;;;;;;5.38;3.03;;;;;;;-1.07;100.00;92845.19;2122748;27;20357;-73
2022/11/25 01:13:34;;;;;;;4.15;2.60;;;;;;;-1.04;100.00;92838.50;2131090;27;20019;-73
2022/11/25 01:14:35;;;;;;;5.50;2.70;;;;;;;-0.98;100.00;92838.97;2137469;27;20022;-76
2022/11/25 01:15:36;;;;;;;4.18;3.03;;;;;;;-0.94;100.00;92845.03;2122047;27;20122;-72
2022/11/25 01:16:37;;;;;;;5.82;3.38;;;;;;;-0.81;100.00;92841.88;2113842;28;20039;-75
2022/11/25 01:17:38;;;;;;;5.47;2.85;;;;;;;-0.92;100.00;92840.19;2113449;28;20559;-73
2022/11/25 01:18:39;;;;;;;6.60;2.33;;;;;;;-0.83;100.00;92838.09;2122410;27;20064;-73
2022/11/25 01:19:40;;;;;;;4.18;2.55;;;;;;;-0.87;100.00;92843.28;2129463;27;20097;-72
2022/11/25 01:20:41;;;;;;;6.75;2.53;;;;;;;-0.91;100.00;92841.72;2122419;27;20022;-73
2022/11/25 01:21:42;;;;;;;5.35;2.38;;;;;;;-0.95;100.00;92844.28;2122256;27;20054;-75
2022/11/25 01:22:43;;;;;;;4.93;2.42;;;;;;;-0.95;100.00;92846.13;2122108;27;20110;-73
2022/11/25 01:23:45;;;;;;;5.13;2.33;;;;;;;-0.92;100.00;92838.34;2122991;27;20395;-72
2022/11/25 01:24:46;;;;;;;2.85;2.28;;;;;;;-0.95;100.00;92838.28;2113313;28;20374;-75
2022/11/25 01:25:47;;;;;;;5.55;2.80;;;;;;;-1.04;100.00;92841.88;2113787;28;20330;-75
2022/11/25 01:26:48;;;;;;;4.70;2.00;;;;;;;-1.03;100.00;92843.38;2113471;28;20487;-74
2022/11/25 01:27:49;;;;;;;3.30;2.00;;;;;;;-1.02;100.00;92839.66;2113620;28;20714;-75
2022/11/25 01:28:59;;;;;;;4.88;2.13;;;;;;;-0.90;100.00;92845.84;2122394;27;20393;-72
2022/11/25 01:30:00;;;;;;;4.97;2.45;;;;;;;-0.88;100.00;92841.00;2130432;27;20061;-72
2022/11/25 01:31:15;;;;;;;4.82;2.25;;;;;;;-0.89;100.00;92845.50;2130733;27;20404;-73
2022/11/25 01:32:16;;;;;;;5.93;2.55;;;;;;;-0.96;100.00;92849.88;2122511;27;20015;-73
2022/11/25 01:33:17;;;;;;;7.53;2.55;;;;;;;-0.98;100.00;92852.81;2122662;27;20023;-73
2022/11/25 01:34:20;;;;;;;5.70;2.55;;;;;;;-1.03;100.00;92851.25;2122830;27;20039;-72
2022/11/25 01:35:21;;;;;;;3.92;2.47;;;;;;;-1.02;100.00;92854.63;2122559;27;20033;-72
2022/11/25 01:36:23;;;;;;;5.80;2.60;;;;;;;-1.02;100.00;92847.53;2122732;27;20031;-72
2022/11/25 01:37:24;;;;;;;3.78;2.67;;;;;;;-0.96;100.00;92848.00;2122408;27;20027;-72
2022/11/25 01:38:25;;;;;;;4.30;2.45;;;;;;;-0.88;100.00;92846.25;2122540;27;20353;-74
2022/11/25 01:39:26;;;;;;;5.63;2.47;;;;;;;-0.84;100.00;92852.31;2122791;27;20054;-72
2022/11/25 01:40:27;;;;;;;3.50;2.30;;;;;;;-0.89;100.00;92842.88;2121776;27;20015;-74
2022/11/25 01:41:30;;;;;;;3.67;2.75;;;;;;;-0.93;100.00;92849.16;2130855;27;20023;-72
2022/11/25 01:42:31;;;;;;;4.80;2.38;;;;;;;-0.95;100.00;92851.38;2131037;27;20022;-71
2022/11/25 01:43:33;;;;;;;5.97;2.25;;;;;;;-0.95;100.00;92849.53;2130794;27;20122;-72
2022/11/25 01:44:35;;;;;;;5.10;2.30;;;;;;;-1.00;100.00;92849.81;2131090;27;20026;-72
2022/11/25 01:45:36;;;;;;;3.92;2.15;;;;;;;-0.96;100.00;92844.63;2130917;27;20554;-71
2022/11/25 01:46:59;;;;;;;7.82;2.17;;;;;;;-0.95;100.00;92839.03;2131290;27;20039;-72
2022/11/25 01:48:34;;;;;;;6.72;2.65;;;;;;;-0.95;100.00;92838.28;2131494;27;20038;-72
2022/11/25 01:49:47;;;;;;;4.57;2.20;;;;;;;-0.89;100.00;92842.09;2131087;27;20023;-72
2022/11/25 01:50:49;;;;;;;5.07;2.38;;;;;;;-0.94;100.00;92834.53;2130018;27;20023;-72
2022/11/25 01:52:12;;;;;;;4.93;2.58;;;;;;;-0.91;100.00;92836.47;2122429;27;20011;-72
2022/11/25 01:53:15;;;;;;;5.18;2.80;;;;;;;-0.86;100.00;92842.16;2113663;28;20162;-75
2022/11/25 01:54:19;;;;;;;5.03;2.70;;;;;;;-0.88;100.00;92833.91;2105680;28;20107;-74
2022/11/25 01:55:26;;;;;;;5.40;2.58;;;;;;;-0.93;100.00;92834.19;2122076;27;20484;-73
2022/11/25 01:56:31;;;;;;;5.20;2.30;;;;;;;-1.09;100.00;92836.91;2125318;27;20109;-71
2022/11/25 01:57:46;;;;;;;3.15;2.50;;;;;;;-1.06;100.00;92840.69;2131333;27;20027;-73
2022/11/25 01:58:48;;;;;;;5.93;2.90;;;;;;;-1.14;100.00;92833.81;2131186;27;20019;-73
2022/11/25 01:59:54;;;;;;;5.13;2.53;;;;;;;-1.12;100.00;92832.38;2131154;27;20034;-75
2022/11/25 02:00:55;;;;;;;4.20;2.28;;;;;;;-1.10;100.00;92832.78;2131154;27;20027;-73
2022/11/25 02:01:59;;;;;;;8.57;2.60;;;;;;;-1.10;100.00;92832.00;2124568;27;20540;-73
2022/11/25 02:03:00;;;;;;;9.48;2.70;;;;;;;-1.11;100.00;92835.75;2122247;27;20366;-74
2022/11/25 02:04:02;;;;;;;4.05;2.50;;;;;;;-1.10;100.00;92832.78;2122462;27;20026;-74
2022/11/25 02:05:08;;;;;;;5.82;2.70;;;;;;;-1.09;100.00;92831.69;2122102;27;20043;-73
2022/11/25 02:06:18;;;;;;;3.33;2.20;;;;;;;-1.00;100.00;92823.59;2114132;28;20030;-74
2022/11/25 02:07:42;;;;;;;4.65;2.47;;;;;;;-0.95;100.00;92820.66;2122467;27;20027;-72
2022/11/25 02:08:48;;;;;;;4.75;2.63;;;;;;;-0.95;100.00;92825.91;2121878;27;20019;-75
2022/11/25 02:09:50;;;;;;;4.15;2.08;;;;;;;-0.92;100.00;92827.84;2122105;27;20022;-72
2022/11/25 02:10:53;;;;;;;4.50;2.63;;;;;;;-0.91;100.00;92834.59;2129871;27;20499;-72
2022/11/25 02:11:55;;;;;;;5.93;2.40;;;;;;;-0.88;100.00;92833.13;2131468;27;20441;-74
2022/11/25 02:12:58;;;;;;;3.58;2.28;;;;;;;-0.88;100.00;92833.13;2123982;27;20047;-72
2022/11/25 02:13:59;;;;;;;5.88;2.15;;;;;;;-0.78;100.00;92822.81;2121870;27;20149;-72
2022/11/25 02:16:49;;;;;;;;;;;;;;;-0.76;100.00;92820.59;2147370;27;20546;-72
2022/11/25 02:17:50;;;;;;;5.88;1.90;;;;;;;-0.76;100.00;92823.22;2146497;27;20272;-74
2022/11/25 02:18:51;;;;;;;5.30;2.17;;;;;;;-0.74;100.00;92822.13;2146434;27;20117;-73
2022/11/25 02:19:58;;;;;;;4.03;2.03;;;;;;;-0.77;100.00;92823.56;2146941;27;20368;-73
2022/11/25 02:20:59;;;;;;;4.20;2.30;;;;;;;-0.61;100.00;92829.44;2147430;27;20030;-74
2022/11/25 02:22:07;;;;;;;7.07;2.40;;;;;;;-0.65;100.00;92818.13;2148606;27;20029;-75
2022/11/25 02:23:26;;;;;;;4.15;1.70;;;;;;;-0.42;100.00;92822.59;2146778;27;20508;-74
2022/11/25 02:24:44;;;;;;;2.83;2.05;;;;;;;-0.35;100.00;92825.31;2147373;27;20014;-73
2022/11/25 02:25:45;;;;;;;4.97;2.28;;;;;;;-0.22;100.00;92816.13;2146931;27;20053;-74
2022/11/25 02:26:46;;;;;;;5.72;2.25;;;;;;;-0.23;100.00;92811.97;2146592;27;20022;-74
2022/11/25 02:27:52;;;;;;;6.60;2.05;;;;;;;-0.01;100.00;92819.03;2146489;27;20515;-73
2022/11/25 02:28:53;;;;;;;3.47;2.25;;;;;;;-0.23;100.00;92819.84;2147090;27;20456;-73
2022/11/25 02:29:54;;;;;;;4.88;2.25;;;;;;;-0.37;100.00;92815.16;2146964;27;20018;-73
2022/11/25 02:30:56;;;;;;;6.70;2.42;;;;;;;-0.47;100.00;92815.78;2146622;27;20010;-73
2022/11/25 02:31:57;;;;;;;4.88;2.42;;;;;;;-0.57;100.00;92819.78;2146757;27;20413;-73
2022/11/25 02:32:59;;;;;;;4.85;2.20;;;;;;;-0.61;100.00;92812.94;2136941;27;20026;-73
2022/11/25 02:34:00;;;;;;;6.38;3.15;;;;;;;-0.58;100.00;92817.47;2137932;27;20039;-73
2022/11/25 02:35:01;;;;;;;5.18;2.42;;;;;;;-0.58;100.00;92810.34;2137760;27;20476;-73
2022/11/25 02:36:06;;;;;;;5.22;4.00;;;;;;;-0.69;100.00;92821.81;2137130;27;20026;-73
2022/11/25 02:37:07;;;;;;;5.00;2.78;;;;;;;-0.60;100.00;92820.47;2137729;27;20026;-72
2022/11/25 02:38:20;;;;;;;8.77;3.55;;;;;;;-0.60;100.00;92820.47;2137785;27;20064;-73
2022/11/25 02:39:22;;;;;;;4.18;2.97;;;;;;;-0.43;100.00;92829.72;2138184;27;20018;-75
2022/11/25 02:40:24;;;;;;;5.30;2.63;;;;;;;-0.53;100.00;92835.53;2138295;27;20011;-73
2022/11/25 02:41:41;;;;;;;7.38;3.05;;;;;;;-0.63;100.00;92833.53;2138454;27;20026;-73
2022/11/25 02:42:44;;;;;;;5.78;2.83;;;;;;;-0.63;100.00;92815.16;2138114;27;20071;-73
2022/11/25 02:43:45;;;;;;;4.03;2.53;;;;;;;-0.58;100.00;92820.84;2132133;27;20022;-74
2022/11/25 02:44:47;;;;;;;7.40;2.58;;;;;;;-0.65;100.00;92825.25;2137047;27;20180;-75
2022/11/25 02:46:00;;;;;;;3.92;2.60;;;;;;;-0.59;100.00;92826.47;2146721;27;20018;-73
2022/11/25 02:47:02;;;;;;;6.35;3.00;;;;;;;-0.56;100.00;92821.28;2146120;27;20033;-75
2022/11/25 02:48:04;;;;;;;5.82;2.83;;;;;;;-0.54;100.00;92818.28;2147011;27;20030;-73
2022/11/25 02:49:05;;;;;;;5.55;2.75;;;;;;;-0.59;100.00;92827.22;2141533;27;20428;-73
2022/11/25 02:50:07;;;;;;;5.80;3.40;;;;;;;-0.58;100.00;92828.72;2138326;27;20037;-73
2022/11/25 02:51:11;;;;;;;4.20;2.50;;;;;;;-0.62;100.00;92824.53;2137744;27;20022;-72
2022/11/25 02:52:12;;;;;;;6.28;3.20;;;;;;;-0.51;100.00;92826.22;2137743;27;20368;-74
2022/11/25 02:53:13;;;;;;;7.40;2.67;;;;;;;-0.45;100.00;92818.03;2138106;27;20023;-74
2022/11/25 02:54:15;;;;;;;9.82;2.90;;;;;;;-0.46;100.00;92817.28;2128538;27;20519;-76
2022/11/25 02:55:16;;;;;;;5.10;2.60;;;;;;;-0.48;100.00;92816.13;2129332;27;20031;-74
2022/11/25 02:56:19;;;;;;;6.32;2.67;;;;;;;-0.51;100.00;92812.34;2137508;27;20041;-73
2022/11/25 02:57:20;;;;;;;4.47;2.40;;;;;;;-0.52;100.00;92811.59;2137814;27;20031;-73
2022/11/25 02:58:21;;;;;;;8.02;2.90;;;;;;;-0.59;100.00;92808.09;2138164;27;20102;-73
2022/11/25 02:59:22;;;;;;;3.55;2.25;;;;;;;-0.59;100.00;92811.47;2141534;27;20057;-74
2022/11/25 03:00:25;;;;;;;6.10;3.05;;;;;;;-0.70;100.00;92807.16;2146949;27;20037;-74
2022/11/25 03:01:27;;;;;;;4.72;2.45;;;;;;;-0.68;100.00;92807.59;2146918;27;20555;-75
2022/11/25 03:02:28;;;;;;;3.83;2.17;;;;;;;-0.69;100.00;92806.84;2146797;27;20403;-73
2022/11/25 03:03:29;;;;;;;3.72;2.65;;;;;;;-0.73;100.00;92805.25;2146415;27;20026;-75
2022/11/25 03:04:30;;;;;;;6.22;2.67;;;;;;;-0.74;100.00;92809.00;2142685;27;20070;-77
2022/11/25 03:05:32;;;;;;;5.30;2.80;;;;;;;-0.68;100.00;92803.09;2138053;27;20456;-74
2022/11/25 03:06:33;;;;;;;5.18;2.50;;;;;;;-0.60;100.00;92811.84;2138246;27;20042;-76
2022/11/25 03:07:35;;;;;;;6.55;2.75;;;;;;;-0.61;100.00;92807.69;2138052;27;20058;-76
2022/11/25 03:08:37;;;;;;;4.85;2.83;;;;;;;-0.63;100.00;92809.91;2137845;27;20463;-77
2022/11/25 03:09:38;;;;;;;5.78;2.40;;;;;;;-0.68;100.00;92802.34;2140152;27;20026;-73
2022/11/25 03:10:39;;;;;;;4.90;2.80;;;;;;;-0.76;100.00;92814.59;2137019;27;20038;-74
2022/11/25 03:13:00;;;;;;;3.63;2.70;;;;;;;-0.66;100.00;92814.00;2134419;27;20022;-73
2022/11/25 03:14:01;;;;;;;6.43;2.80;;;;;;;-0.72;100.00;92815.41;2146763;27;20033;-73
2022/11/25 03:15:02;;;;;;;10.50;3.50;;;;;;;-0.74;100.00;92816.88;2123891;27;20034;-73
2022/11/25 03:16:04;;;;;;;10.80;3.30;;;;;;;-0.66;100.00;92821.09;2120184;27;20594;-73
2022/11/25 03:17:05;;;;;;;5.78;2.67;;;;;;;-0.56;100.00;92818.66;2129213;27;20023;-73
2022/11/25 03:18:06;;;;;;;9.63;3.28;;;;;;;-0.36;100.00;92813.28;2128202;27;20520;-73
2022/11/25 03:19:07;;;;;;;6.38;2.70;;;;;;;-0.42;100.00;92810.22;2123408;27;20145;-73
2022/11/25 03:20:09;;;;;;;7.05;2.55;;;;;;;-0.52;100.00;92822.09;2128754;27;20019;-73
2022/11/25 03:21:10;;;;;;;7.32;3.10;;;;;;;-0.59;100.00;92816.72;2128101;27;20131;-73
2022/11/25 03:22:11;;;;;;;7.82;3.40;;;;;;;-0.60;100.00;92812.59;2137378;27;20031;-75
2022/11/25 03:23:12;;;;;;;4.68;3.05;;;;;;;-0.55;100.00;92820.16;2138095;27;20057;-75
2022/11/25 03:24:12;;;;;;;6.35;3.38;;;;;;;-0.58;100.00;92810.34;2137634;27;20033;-73
2022/11/25 03:25:14;;;;;;;7.22;3.20;;;;;;;-0.62;100.00;92814.03;2137697;27;20046;-74
2022/11/25 03:26:15;;;;;;;6.88;3.03;;;;;;;-0.65;100.00;92812.13;2129648;27;20112;-75
2022/11/25 03:27:16;;;;;;;5.60;3.03;;;;;;;-0.68;100.00;92810.97;2128844;27;20169;-74
2022/11/25 03:28:17;;;;;;;5.03;2.90;;;;;;;-0.73;100.00;92800.00;2122838;27;20054;-75
2022/11/25 03:29:18;;;;;;;4.47;2.72;;;;;;;-0.70;100.00;92797.44;2113935;28;20027;-72
2022/11/25 03:30:22;;;;;;;4.63;3.00;;;;;;;-0.67;100.00;92803.84;2114264;28;20023;-73
2022/11/25 03:31:29;;;;;;;3.33;2.40;;;;;;;-0.68;100.00;92795.22;2129383;27;20275;-72
2022/11/25 03:32:36;;;;;;;6.47;2.90;;;;;;;-0.63;100.00;92792.28;2131829;27;20455;-72
2022/11/25 03:33:44;;;;;;;5.97;3.67;;;;;;;-0.49;100.00;92802.22;2131839;27;20065;-72
2022/11/25 03:34:45;;;;;;;6.00;3.00;;;;;;;-0.52;100.00;92803.72;2131992;27;20077;-72
2022/11/25 03:35:47;;;;;;;4.63;2.70;;;;;;;-0.52;100.00;92805.59;2131703;27;20034;-72
2022/11/25 03:36:48;;;;;;;3.80;2.80;;;;;;;-0.54;100.00;92802.53;2123083;27;20027;-72
2022/11/25 03:37:49;;;;;;;5.50;2.95;;;;;;;-0.61;100.00;92807.69;2123569;27;20031;-72
2022/11/25 03:38:50;;;;;;;5.88;2.70;;;;;;;-0.59;100.00;92816.72;2122936;27;20027;-72
2022/11/25 03:39:50;;;;;;;4.80;2.63;;;;;;;-0.64;100.00;92814.41;2122991;27;20107;-72
2022/11/25 03:40:51;;;;;;;3.78;2.30;;;;;;;-0.65;100.00;92815.50;2122733;27;20019;-72
2022/11/25 03:41:52;;;;;;;6.03;3.13;;;;;;;-0.65;100.00;92812.88;2105523;28;20070;-73
2022/11/25 03:42:53;;;;;;;5.40;2.70;;;;;;;-0.65;100.00;92809.50;2097377;28;20481;-74
2022/11/25 03:43:54;;;;;;;5.25;2.40;;;;;;;-0.68;100.00;92800.47;2097713;28;20028;-72
2022/11/25 03:44:55;;;;;;;3.67;2.45;;;;;;;-0.65;100.00;92801.63;2114465;27;20019;-75
2022/11/25 03:45:56;;;;;;;4.80;2.58;;;;;;;-0.68;100.00;92808.34;2123456;27;20023;-74
2022/11/25 03:46:57;;;;;;;6.18;2.60;;;;;;;-0.73;100.00;92807.88;2124986;27;20050;-74
2022/11/25 03:47:58;;;;;;;5.90;3.05;;;;;;;-0.74;100.00;92811.63;2132169;27;20021;-73
2022/11/25 03:48:59;;;;;;;5.13;2.40;;;;;;;-0.83;100.00;92814.50;2131451;27;20026;-72
2022/11/25 03:50:00;;;;;;;7.95;2.85;;;;;;;-0.85;100.00;92816.69;2131978;27;20023;-76
2022/11/25 03:51:01;;;;;;;5.90;2.75;;;;;;;-0.90;100.00;92823.00;2132034;27;20417;-74
2022/11/25 03:52:03;;;;;;;5.88;2.50;;;;;;;-0.77;100.00;92816.44;2130521;27;20051;-73
2022/11/25 03:53:04;;;;;;;4.88;2.20;;;;;;;-0.78;100.00;92814.94;2114599;27;20039;-72
2022/11/25 03:54:05;;;;;;;5.20;2.83;;;;;;;-0.80;100.00;92816.38;2122703;27;20100;-74
2022/11/25 03:55:07;;;;;;;4.15;2.78;;;;;;;-0.77;100.00;92813.06;2123188;27;20434;-71
2022/11/25 03:56:08;;;;;;;5.13;2.90;;;;;;;-0.78;100.00;92824.69;2123238;27;20619;-73
2022/11/25 03:57:09;;;;;;;5.25;3.30;;;;;;;-0.74;100.00;92819.50;2122785;27;20049;-72
2022/11/25 03:58:10;;;;;;;4.00;2.55;;;;;;;-0.72;100.00;92822.50;2126640;27;20031;-70
2022/11/25 03:59:11;;;;;;;4.40;2.22;;;;;;;-0.73;100.00;92819.13;2131813;27;20031;-74
2022/11/25 04:00:12;;;;;;;4.95;2.60;;;;;;;-0.71;100.00;92827.41;2131375;27;20077;-73
2022/11/25 04:01:13;;;;;;;4.25;2.30;;;;;;;-0.64;100.00;92817.03;2131948;27;20105;-71
2022/11/25 04:02:14;;;;;;;3.42;2.20;;;;;;;-0.74;100.00;92820.25;2132053;27;20027;-72
2022/11/25 04:03:15;;;;;;;6.13;2.30;;;;;;;-0.64;100.00;92824.91;2128247;27;20023;-73
2022/11/25 04:04:16;;;;;;;6.03;2.75;;;;;;;-0.57;100.00;92821.59;2123279;27;20022;-72
2022/11/25 04:05:17;;;;;;;6.45;2.40;;;;;;;-0.58;100.00;92825.34;2123560;27;20058;-74
2022/11/25 04:06:20;;;;;;;4.32;2.20;;;;;;;-0.57;100.00;92824.22;2122194;27;20199;-71
2022/11/25 04:07:21;;;;;;;3.80;2.45;;;;;;;-0.53;100.00;92820.56;2113973;28;20092;-74
2022/11/25 04:08:22;;;;;;;6.88;3.03;;;;;;;-0.56;100.00;92821.28;2113976;28;20088;-74
2022/11/25 04:09:24;;;;;;;5.40;2.30;;;;;;;-0.33;100.00;92823.09;2122626;27;20037;-71
2022/11/25 04:10:25;;;;;;;6.70;2.50;;;;;;;-0.39;100.00;92824.53;2123329;27;20458;-71
2022/11/25 04:12:45;;;;;;;5.57;2.40;;;;;;;-0.41;100.00;92821.47;2123973;27;20029;-71
2022/11/25 04:12:47;;;;;;;5.00;2.30;;;;;;;-0.40;100.00;92821.13;2123578;27;20049;-73
2022/11/25 04:13:48;;;;;;;2.70;1.95;;;;;;;-0.42;100.00;92822.59;2123008;27;20167;-74
2022/11/25 04:14:49;;;;;;;8.23;2.63;;;;;;;-0.44;100.00;92814.28;2123388;27;20019;-74
2022/11/25 04:15:50;;;;;;;5.38;2.35;;;;;;;-0.47;100.00;92815.78;2123325;27;20057;-72
2022/11/25 04:16:51;;;;;;;4.57;2.55;;;;;;;-0.48;100.00;92819.53;2131832;27;20071;-72
2022/11/25 04:17:52;;;;;;;3.45;2.20;;;;;;;-0.49;100.00;92817.22;2131750;27;20757;-73
2022/11/25 04:18:53;;;;;;;3.35;2.35;;;;;;;-0.45;100.00;92821.41;2133022;27;20030;-72
2022/11/25 04:19:54;;;;;;;6.47;2.20;;;;;;;-0.23;100.00;92821.72;2139978;27;20455;-73
2022/11/25 04:20:55;;;;;;;3.35;2.10;;;;;;;-0.33;100.00;92815.97;2140169;27;20467;-74
2022/11/25 04:22:00;;;;;;;5.15;1.95;;;;;;;-0.32;100.00;92808.84;2139775;27;20424;-72
2022/11/25 04:23:01;;;;;;;4.63;2.65;;;;;;;-0.33;100.00;92817.84;2139915;27;20022;-71
2022/11/25 04:24:02;;;;;;;5.03;2.10;;;;;;;-0.42;100.00;92814.72;2125701;27;20029;-71
2022/11/25 04:25:04;;;;;;;3.75;2.20;;;;;;;-0.46;100.00;92816.53;2122324;27;20030;-73
2022/11/25 04:26:05;;;;;;;9.85;2.17;;;;;;;-0.48;100.00;92818.75;2130824;27;20073;-72
2022/11/25 04:27:06;;;;;;;6.93;3.40;;;;;;;-0.46;100.00;92821.78;2140209;27;20018;-73
2022/11/25 04:28:07;;;;;;;4.80;2.22;;;;;;;-0.45;100.00;92815.41;2139987;27;20033;-74
2022/11/25 04:29:08;;;;;;;6.13;2.17;;;;;;;-0.41;100.00;92822.22;2130161;27;20122;-73
2022/11/25 04:30:10;;;;;;;3.35;2.20;;;;;;;-0.39;100.00;92816.66;2131002;27;20026;-75
2022/11/25 04:31:11;;;;;;;4.60;2.10;;;;;;;-0.32;100.00;92816.72;2140360;27;20025;-72
2022/11/25 04:32:12;;;;;;;3.53;2.15;;;;;;;-0.24;100.00;92823.59;2139883;27;20384;-71
2022/11/25 04:33:13;;;;;;;6.03;2.55;;;;;;;-0.27;100.00;92824.28;2139835;27;20464;-75
2022/11/25 04:34:14;;;;;;;7.22;2.80;;;;;;;-0.32;100.00;92824.59;2134373;27;20027;-71
2022/11/25 04:35:16;;;;;;;6.97;2.70;;;;;;;-0.33;100.00;92825.72;2122283;27;20047;-74
2022/11/25 04:36:17;;;;;;;3.90;2.65;;;;;;;-0.37;100.00;92823.03;2122476;27;20148;-73
2022/11/25 04:37:18;;;;;;;5.28;2.72;;;;;;;-0.34;100.00;92821.59;2131620;27;20019;-73
2022/11/25 04:38:19;;;;;;;4.07;2.40;;;;;;;-0.35;100.00;92825.31;2131103;27;20030;-74
2022/11/25 04:39:19;;;;;;;6.50;2.50;;;;;;;-0.37;100.00;92823.03;2130608;27;20056;-71
2022/11/25 04:40:20;;;;;;;5.40;2.38;;;;;;;-0.28;100.00;92820.91;2121674;27;20076;-71
2022/11/25 04:41:22;;;;;;;6.60;2.72;;;;;;;-0.23;100.00;92819.09;2122415;27;20031;-73
2022/11/25 04:42:31;;;;;;;5.60;2.20;;;;;;;-0.28;100.00;92818.28;2131655;27;20049;-73
2022/11/25 04:43:32;;;;;;;5.55;2.47;;;;;;;-0.32;100.00;92817.47;2131602;27;20027;-73
2022/11/25 04:44:33;;;;;;;3.15;2.30;;;;;;;-0.35;100.00;92814.81;2121674;27;20035;-73
2022/11/25 04:45:34;;;;;;;5.82;2.30;;;;;;;-0.34;100.00;92822.34;2122316;27;20023;-72
2022/11/25 04:46:41;;;;;;;5.05;2.88;;;;;;;-0.29;100.00;92824.66;2131248;27;20023;-74
2022/11/25 04:47:43;;;;;;;6.25;2.50;;;;;;;-0.29;100.00;92818.66;2132639;27;20030;-71
2022/11/25 04:48:44;;;;;;;19.48;6.00;;;;;;;-0.18;100.00;92824.03;2123548;27;20015;-73
2022/11/25 04:49:45;;;;;;;4.65;3.65;;;;;;;-0.18;100.00;92816.91;2122569;27;20071;-72
2022/11/25 04:50:46;;;;;;;9.13;2.65;;;;;;;-0.15;100.00;92824.09;2122071;27;20079;-73
2022/11/25 04:51:47;;;;;;;7.97;2.97;;;;;;;-0.18;100.00;92809.03;2122293;27;20065;-73
2022/11/25 04:52:48;;;;;;;5.75;2.88;;;;;;;-0.15;100.00;92820.72;2131424;27;20055;-71
2022/11/25 04:53:49;;;;;;;6.55;3.17;;;;;;;-0.13;100.00;92811.38;2131532;27;20022;-73
2022/11/25 04:54:50;;;;;;;5.13;2.78;;;;;;;-0.29;100.00;92822.03;2121930;27;20077;-72
2022/11/25 04:55:51;;;;;;;7.90;2.85;;;;;;;-0.18;100.00;92818.78;2122257;27;20536;-74
2022/11/25 04:56:52;;;;;;;9.15;3.08;;;;;;;-0.08;100.00;92810.31;2131509;27;20026;-74